• Join FlightAware (Why Join?)
  • Login
  • US Flag 
Rudolph Flight #1: Arrived! 
12:30AM EST


 

Airport Tracker/Info


-or-


 

Live Flight TrackerFlight Track Log ✈ GGN7280 ✈ 12-Jul-2013 ✈ CYYZ - KALB

Flight Track Log - Related Links

Times and Time Zones

All times are in EDT time to prevent confusion due to time zone crossing. See the GGN7280 flight status page for this flight to view local times or setup timezone preferences in your user account.

Time Position Orientation Groundspeed Altitude Reporting Facility
EDT Latitude Longitude Course Direction KTS MPH feet Rate Location/Type
09:51AM 43.6500 -79.6167 75° East 20 23 600  Level Toronto Center
09:52AM 43.6667 -79.5333 75° East 150 173 2,000 1,440 Climbing Toronto Center
09:53AM 43.6667 -79.4667 90° East 180 207 3,500 1,260 Climbing Toronto Center
09:54AM 43.6000 -79.4667 180° South 210 242 4,600 1,020 Climbing Toronto Center
09:55AM 43.5833 -79.3833 105° East 220 253 5,600 1,020 Climbing Toronto Center
09:56AM 43.5500 -79.3167 125° Southeast 220 253 6,700 960 Climbing Toronto Center
09:57AM 43.5167 -79.2167 115° Southeast 230 265 7,600 840 Climbing Toronto Center
09:58AM 43.5000 -79.1500 109° East 230 265 8,400 960 Climbing Toronto Center
09:59AM 43.4833 -79.0667 105° East 220 253 9,600 960 Climbing Toronto Center
10:00AM 43.4833 -78.9833 90° East 220 253 10,400 600 Climbing Toronto Center
10:01AM 43.5000 -78.9000 75° East 230 265 10,900 540 Climbing Toronto Center
10:02AM 43.5000 -78.8000 90° East 240 276 11,500 840 Climbing Toronto Center
10:03AM 43.4833 -78.7167 105° East 240 276 12,600 1,140 Climbing Toronto Center
10:04AM 43.4833 -78.6167 90° East 230 265 13,800 1,200 Climbing Toronto Center
10:05AM 43.4667 -78.5333 105° East 230 265 15,000 1,080 Climbing Toronto Center
10:06AM 43.4333 -78.4333 115° Southeast 230 265 16,000 900 Climbing Toronto Center
10:07AM 43.4333 -78.3500 90° East 240 276 16,900 900 Climbing Toronto Center
10:08AM 43.4403 -78.3131 75° East 236 272 17,600 780 Climbing Cleveland Center
10:09AM 43.4281 -78.2164 100° East 242 278 18,300 720 Climbing Cleveland Center
10:10AM 43.4156 -78.1225 100° East 242 278 19,100 840 Climbing Cleveland Center
10:11AM 43.4031 -78.0258 100° East 247 284 20,000 780 Climbing Cleveland Center
10:12AM 43.3906 -77.9322 100° East 247 284 20,700 480 Climbing Cleveland Center
10:13AM 43.3758 -77.8328 101° East 252 290 21,000 120 Climbing Cleveland Center
10:14AM 43.3608 -77.7336 102° East 258 297 21,000  Level Cleveland Center
10:15AM 43.3481 -77.6342 100° East 258 297 21,000  Level Cleveland Center
10:16AM 43.3369 -77.5319 98° East 258 297 21,000  Level Cleveland Center
10:17AM 43.3217 -77.4300 102° East 258 297 21,000  Level Cleveland Center
10:18AM 43.3044 -77.3281 103° East 258 297 21,000  Level Cleveland Center
10:19AM 43.2911 -77.2261 100° East 258 297 21,000  Level Cleveland Center
10:21AM 43.2594 -77.0025 101° East 260 299 21,000  Level Boston Center
10:22AM 43.2447 -76.9044 102° East 260 299 21,000  Level Boston Center
10:23AM 43.2333 -76.7500 96° East 270 311 21,000  Level Toronto Center
10:24AM 43.2000 -76.6667 119° Southeast 270 311 21,000  Level Toronto Center
10:25AM 43.1833 -76.5667 103° East 270 311 21,000  Level Toronto Center
10:26AM 43.1667 -76.4500 101° East 270 311 21,000  Level Toronto Center
10:27AM 43.1500 -76.3667 105° East 270 311 21,000  Level Toronto Center
10:28AM 43.1500 -76.2500 90° East 270 311 21,000  Level Toronto Center
10:30AM 43.1372 -76.1819 104° East 260 299 21,000 -420 Level Boston Center
10:31AM 43.1183 -76.0586 102° East 265 305 20,100 -1,020 Descending Boston Center
10:32AM 43.1031 -75.9494 101° East 272 313 19,000 -1,080 Descending Boston Center
10:33AM 43.0853 -75.8406 103° East 278 320 18,000 -960 Descending Boston Center
10:34AM 43.0678 -75.7342 103° East 283 326 17,100 -900 Descending Boston Center
10:35AM 43.0519 -75.6283 102° East 283 326 16,300 -840 Descending Boston Center
10:36AM 43.0342 -75.5194 103° East 283 326 15,500 -900 Descending Boston Center
10:37AM 43.0181 -75.4136 102° East 283 326 14,600 -900 Descending Boston Center
10:38AM 43.0000 -75.3103 103° East 283 326 13,700 -960 Descending Boston Center
10:39AM 42.9858 -75.2047 100° East 283 326 12,700 -900 Descending Boston Center
10:40AM 42.9675 -75.0989 103° East 278 320 11,900 -840 Descending Boston Center
10:41AM 42.9511 -74.9961 102° East 278 320 11,100 -480 Descending Boston Center
10:42AM 42.9325 -74.8961 104° East 278 320 11,000 -60 Descending Boston Center
10:43AM 42.9175 -74.8131 104° East 264 304 11,000  Level Boston Center
10:44AM 42.9011 -74.7047 102° East 255 293 11,000  Level Boston Center
10:45AM 42.8839 -74.6164 105° East 257 296 11,000  Level Boston Center
10:46AM 42.8669 -74.5167 103° East 260 299 11,100 -360 Climbing Boston Center
10:47AM 42.8542 -74.4283 101° East 260 299 10,300 -1,260 Descending Boston Center
10:48AM 42.8350 -74.3172 103° East 266 306 8,600 -1,500 Descending Boston Center
10:49AM 42.8219 -74.2319 102° East 261 300 7,300 -1,200 Descending Boston Center
10:50AM 42.7731 -74.1514 130° Southeast 244 281 6,200 -960 Descending Boston Center
10:51AM 42.7300 -74.0964 137° Southeast 244 281 5,400 -840 Descending Boston Center
10:52AM 42.6767 -74.0414 143° Southeast 229 264 4,600 -660 Descending Boston Center
10:53AM 42.6442 -73.9869 129° Southeast 210 242 4,100 -660 Descending Boston Center
10:54AM 42.6450 -73.9275 89° East 181 208 3,300 -1,080 Descending Boston Center
10:55AM 42.6836 -73.8297 62° Northeast 159 183 1,500 -1,080 Descending Boston Center
10:56AM 42.7111 -73.8078 30° Northeast 140 161 900 -780 Descending Boston Center
10:59AM 42.7333 -73.8000 North  Level FlightAware Approximate